Pagrindinis puslapis
METAR-TAF:

METAR-TAF

Oro uostai :

Hévíz, Vengrija

platuma: 46-41-11N, ilguma: 017-09-33E, Aukštis: 124 m

Dabartinis oras

Ataskaita buvo paskelbta 41 minutes, ne 19:45 UTC
Ramus vėjas
Temperatūra -1°C
Drėgmė 100%
Slėgis 1047 hPa
Matomumas: 1700 m
rūkana

METAR: LHSM 201945Z AUTO 00000KT 1700 BR NCD M01/M01 Q1047

Laikas: 21:26 (20:26 UTC)

Prognozė

Ataskaita buvo paskelbta 9 valandos ir 11 minutes, ne 11:15 UTC
Prognozė galioja nuo 20 metu 12 UTC su 20 metu 21 UTC
Vėjas 8 kt iš Šiaurės/Šiaurės Rytų
Matomumas: 8000 m
Apsiniaukę ne aukštis 1000 ft
Laikinai
nuo 20 metu 12 UTC su 20 metu 16 UTC
Išsisklaidę debesys ne aukštis 1000 ft
Tapsmas
nuo 20 metu 16 UTC su 20 metu 19 UTC
Matomumas: 3000 m
rūkana
Tikimybė 30% :
Laikinai
nuo 20 metu 19 UTC su 20 metu 21 UTC
Matomumas: 0600 m
Apsiniaukę ne aukštis 200 ft
įšaldymas rūko

TAF: LHSM 201115Z 2012/2021 02008KT 8000 OVC010 TEMPO 2012/2016 SCT010 BECMG 2016/2019 3000 BR PROB30 TEMPO 2019/2021 0600 FZFG OVC002

Orai ataskaitas ir orų prognozės (METAR, TAF).

turimą stotys yra geltonos ir raudonos taškus žemėlapyje.

Perkelti pele per norėdami pamatyti stoties vardą.

Tada spustelėkite, norėdami matyti oro stebėjimo ir prognozės.

Norėdami pakeisti žemėlapį: spustelėkite ant žalios mygtukų su juodo kryžiaus žemyn,; žalią mygtuką su brūkšneliu, jei norite nutolinti; arba žalių rodyklių gretimoms žemėlapius.


METAR-TAF: